• Join FlightAware (Why Join?)
  • Login
  • US Flag GB Flag 
09:24 EDT


 

Airport Tracker/Info


-or-


 

Live Flight TrackerFlight Track Log ✈ N137TK ✈ 02-Jul-2013 ✈ KPTK - KAVL

Flight Track Log - Related Links

Times and Time Zones

All times are in EDT time to prevent confusion due to time zone crossing. See the N137TK flight status page for this flight to view local times or setup timezone preferences in your user account.

Time Position Orientation Groundspeed Altitude Reporting Facility
EDT Latitude Longitude Course Direction KTS MPH feet Rate Location/Type
23:01 42.6656 -83.3956 98° East 140 161 1,600  Level Cleveland Center
23:02 42.6622 -83.3644 98° East 142 163 2,900 1,920 Climbing Cleveland Center
23:03 42.6361 -83.3208 129° Southeast 152 175 4,800 1,920 Climbing Cleveland Center
23:04 42.6100 -83.2775 129° Southeast 158 182 6,600 1,980 Climbing Cleveland Center
23:05 42.5839 -83.2311 127° Southeast 158 182 8,600 1,860 Climbing Cleveland Center
23:06 42.5406 -83.2181 167° South 156 180 10,500 1,800 Climbing Cleveland Center
23:07 42.4986 -83.2219 184° South 156 180 12,400 1,620 Climbing Cleveland Center
23:08 42.4506 -83.2311 188° South 161 185 13,800 1,320 Climbing Cleveland Center
23:09 42.4067 -83.2350 184° South 177 204 15,100 1,500 Climbing Cleveland Center
23:10 42.3586 -83.2414 186° South 188 216 16,800 1,380 Climbing Cleveland Center
23:11 42.3064 -83.2506 187° South 174 200 17,900 1,140 Climbing Cleveland Center
23:12 42.2622 -83.2569 186° South 174 200 19,100 1,020 Climbing Cleveland Center
23:13 42.2142 -83.2633 186° South 174 200 20,000 420 Climbing Cleveland Center
23:14 42.1597 -83.2722 187° South 189 217 20,000  Level Cleveland Center
23:15 42.0992 -83.2808 186° South 214 246 20,000  Level Cleveland Center
23:16 42.0400 -83.3147 203° Southwest 226 260 20,000  Level Cleveland Center
23:17 41.9844 -83.3656 214° Southwest 235 270 20,000  Level Cleveland Center
23:18 41.9292 -83.4106 211° Southwest 242 278 20,000  Level Cleveland Center
23:19 41.8781 -83.4528 212° Southwest 242 278 20,000  Level Cleveland Center
23:20 41.8247 -83.5036 215° Southwest 242 278 20,000  Level Cleveland Center
23:21 41.7694 -83.5483 211° Southwest 242 278 20,000  Level Cleveland Center
23:22 41.7100 -83.5844 204° Southwest 242 278 20,000  Level Cleveland Center
23:23 41.6450 -83.6008 191° South 242 278 20,000  Level Cleveland Center
23:24 41.5808 -83.5869 171° South 234 269 20,000  Level Cleveland Center
23:25 41.5122 -83.5725 171° South 234 269 20,000  Level Cleveland Center
23:26 41.4481 -83.5611 172° South 239 275 20,000  Level Cleveland Center
23:27 41.3794 -83.5469 171° South 239 275 20,000  Level Cleveland Center
23:28 41.3131 -83.5383 174° South 244 281 20,000  Level Cleveland Center
23:29 41.2447 -83.5217 170° South 244 281 20,000  Level Cleveland Center
23:31 41.0847 -83.4928 172° South 246 283 20,000  Level Indianapolis Center
23:32 41.0178 -83.4800 172° South 242 278 20,000  Level Indianapolis Center
23:33 40.9494 -83.4678 172° South 245 282 20,000  Level Indianapolis Center
23:34 40.8814 -83.4561 173° South 245 282 20,000  Level Indianapolis Center
23:35 40.8036 -83.4414 172° South 242 278 20,000  Level Indianapolis Center
23:36 40.7347 -83.4314 174° South 246 283 20,000  Level Indianapolis Center
23:37 40.6669 -83.4186 172° South 245 282 20,000  Level Indianapolis Center
23:38 40.5981 -83.4050 171° South 246 283 20,000  Level Indianapolis Center
23:39 40.5283 -83.3936 173° South 249 287 20,000  Level Indianapolis Center
23:40 40.4589 -83.3808 172° South 249 287 20,000  Level Indianapolis Center
23:41 40.3900 -83.3683 172° South 249 287 20,000  Level Indianapolis Center
23:42 40.3206 -83.3558 172° South 249 287 20,000  Level Indianapolis Center
23:43 40.2514 -83.3439 172° South 249 287 20,000  Level Indianapolis Center
23:44 40.1831 -83.3306 172° South 246 283 20,000  Level Indianapolis Center
23:45 40.1136 -83.3189 173° South 247 284 20,000  Level Indianapolis Center
23:46 40.0442 -83.3067 172° South 249 287 20,000  Level Indianapolis Center
23:47 39.9756 -83.2933 172° South 246 283 20,000  Level Indianapolis Center
23:48 39.9056 -83.2819 173° South 248 285 20,000  Level Indianapolis Center
23:49 39.8364 -83.2689 172° South 247 284 20,000  Level Indianapolis Center
23:50 39.7664 -83.2572 173° South 248 285 20,000  Level Indianapolis Center
23:51 39.6969 -83.2456 173° South 248 285 20,000  Level Indianapolis Center
23:52 39.6269 -83.2331 172° South 251 289 20,000  Level Indianapolis Center
23:53 39.5572 -83.2211 172° South 249 287 20,000  Level Indianapolis Center
23:54 39.4881 -83.2092 172° South 249 287 20,000  Level Indianapolis Center
23:55 39.4200 -83.1972 172° South 245 282 20,000  Level Indianapolis Center
23:56 39.3514 -83.1847 172° South 246 283 20,000  Level Indianapolis Center
23:57 39.2825 -83.1739 173° South 246 283 20,000  Level Indianapolis Center
23:58 39.2133 -83.1608 172° South 249 287 20,000  Level Indianapolis Center
00:00 39.1406 -83.1494 173° South 244 281 20,000  Level Indianapolis Center
00:01 39.0717 -83.1369 172° South 248 285 20,000  Level Indianapolis Center
00:02 39.0031 -83.1244 172° South 250 288 20,000  Level Indianapolis Center
00:03 38.9336 -83.1131 173° South 250 288 20,000  Level Indianapolis Center
00:04 38.8642 -83.1017 173° South 251 289 20,000  Level Indianapolis Center
00:05 38.7958 -83.0892 172° South 250 288 20,000  Level Indianapolis Center
00:06 38.7267 -83.0769 172° South 251 289 20,000  Level Indianapolis Center
00:07 38.6586 -83.0658 173° South 247 284 20,000  Level Indianapolis Center
00:08 38.5850 -83.0533 172° South 248 285 20,000  Level Indianapolis Center
00:09 38.5164 -83.0414 172° South 247 284 20,000  Level Indianapolis Center
00:10 38.4481 -83.0300 173° South 248 285 20,000  Level Indianapolis Center
00:11 38.3803 -83.0194 173° South 246 283 20,000  Level Indianapolis Center
00:12 38.3117 -83.0069 172° South 248 285 20,000  Level Indianapolis Center
00:13 38.2439 -82.9953 172° South 246 283 20,000  Level Indianapolis Center
00:14 38.1756 -82.9836 172° South 247 284 20,000  Level Indianapolis Center
00:15 38.1075 -82.9736 173° South 247 284 20,000  Level Indianapolis Center
00:16 38.0394 -82.9617 172° South 246 283 20,000  Level Indianapolis Center
00:17 37.9719 -82.9514 173° South 244 281 20,000  Level Indianapolis Center
00:18 37.9042 -82.9397 172° South 244 281 20,000  Level Indianapolis Center
00:19 37.8242 -82.9253 172° South 248 285 20,000  Level Indianapolis Center
00:20 37.7561 -82.9147 173° South 246 283 20,000  Level Indianapolis Center
00:21 37.6889 -82.9022 172° South 245 282 20,000  Level Indianapolis Center
00:22 37.6206 -82.8919 173° South 246 283 20,000  Level Indianapolis Center
00:23 37.5519 -82.8811 173° South 247 284 20,000  Level Indianapolis Center
00:24 37.4844 -82.8700 173° South 245 282 20,000  Level Indianapolis Center
00:25 37.4156 -82.8594 173° South 247 284 20,000  Level Indianapolis Center
00:26 37.3472 -82.8475 172° South 247 284 20,000  Level Indianapolis Center
00:27 37.2792 -82.8367 173° South 246 283 20,000  Level Indianapolis Center
00:28 37.2106 -82.8250 172° South 247 284 20,000  Level Indianapolis Center
00:29 37.1408 -82.8136 173° South 250 288 20,000  Level Indianapolis Center
00:30 37.0719 -82.8022 172° South 249 287 20,000  Level Indianapolis Center
00:31 37.0025 -82.7903 172° South 249 287 20,000  Level Indianapolis Center
00:32 36.9314 -82.7789 173° South 251 289 20,000  Level Indianapolis Center
00:33 36.8600 -82.7669 172° South 253 291 20,000  Level Indianapolis Center
00:34 36.7892 -82.7558 173° South 254 292 20,000  Level Indianapolis Center
00:36 36.6858 -82.7409 173° South  Level FlightAware Approximate
00:43 36.2299 -82.6661 172° South  Level FlightAware Approximate
00:44 36.1648 -82.6552 172° South  Level FlightAware Approximate
00:45 36.0997 -82.6458 169° South  Level FlightAware Approximate
00:46 36.0353 -82.6296 169° South  Level FlightAware Approximate
00:47 35.9707 -82.6167 180° South  Level FlightAware Approximate
00:48 35.9054 -82.6092 172° South  Level FlightAware Approximate
00:49 35.8403 -82.5984 172° South  Level FlightAware Approximate
00:50 35.7752 -82.5875 172° South  Level FlightAware Approximate
00:51 35.7103 -82.5754 171° South  Level FlightAware Approximate
00:52 35.6454 -82.5624 171° South  Level FlightAware Approximate
00:53 35.5805 -82.5500 180° South  Level FlightAware Approximate
00:54 35.5148 -82.5500 180° South  Level FlightAware Approximate
00:55 35.4502 -82.5375 168° South  Level FlightAware Approximate
00:56 35.4333 -82.5333 168° South  Level FlightAware Approximate
00:57 35.4362 -82.5418 168° South  Level Estimated
00:58 35.4362 -82.5418 168° South  Level Estimated
00:59 35.4362 -82.5418 168° South  Level Estimated
01:00 35.4362 -82.5418 168° South  Level Estimated
01:01 35.4362 -82.5418 168° South  Level Estimated
01:02 35.4362 -82.5418 168° South  Level Estimated
01:03 35.4362 -82.5418 168° South  Level Estimated
01:04 35.4362 -82.5418 168° South  Level Estimated
01:05 35.4362 -82.5418 168° South  Level Estimated
01:06 35.4362 -82.5418 168° South  Level Estimated
01:07 35.4362 -82.5418 168° South  Level Estimated
01:08 35.4362 -82.5418 168° South  Level Estimated
01:09 35.4362 -82.5418 168° South  Level Estimated
01:10 35.4362 -82.5418 168° South  Level Estimated
01:11 35.4362 -82.5418 168° South  Level Estimated